Time;durP1;ratioP1;P1;durP2;ratioP2;P2;SDS_P1;SDS_P2;PMS_P1;PMS_P2;Temp;Humidity;BMP_temperature;BMP_pressure;BME280_temperature;BME280_humidity;BME280_pressure;Samples;Min_cycle;Max_cycle;Signal;HPM_P1;HPM_P2
2021/09/01 06:23:07;;;;;;;21.55;1.80;;;;;;;;;;10485890;27;20637;-86
2021/09/01 06:28:08;;;;;;;8.10;1.30;;;;;;;;;;10469203;28;20033;-86
2021/09/01 06:33:08;;;;;;;11.35;1.70;;;;;;;;;;10465174;28;20063;-86
2021/09/01 06:38:09;;;;;;;11.68;1.83;;;;;;;;;;10491887;28;20031;-86
2021/09/01 06:43:11;;;;;;;11.90;1.27;;;;;;;;;;10475983;28;20510;-86
2021/09/01 06:48:12;;;;;;;3.55;1.25;;;;;;;;;;10450905;28;20449;-86
2021/09/01 06:53:12;;;;;;;11.82;2.35;;;;;;;;;;10488511;28;20039;-92
2021/09/01 06:58:18;;;;;;;6.67;1.50;;;;;;;;;;10474156;28;20025;-91
2021/09/01 07:03:19;;;;;;;2.15;0.90;;;;;;;;;;10489918;28;20091;-91
2021/09/01 07:08:22;;;;;;;4.00;1.27;;;;;;;;;;10445597;28;20025;-87
2021/09/01 07:13:22;;;;;;;10.13;1.27;;;;;;;;;;10490734;28;20021;-88
2021/09/01 07:18:23;;;;;;;5.70;1.02;;;;;;;;;;10480408;28;20025;-94
2021/09/01 07:23:23;;;;;;;10.27;1.47;;;;;;;;;;10469509;28;20040;-90
2021/09/01 07:28:24;;;;;;;8.70;1.23;;;;;;;;;;10487649;28;20029;-89
2021/09/01 07:33:24;;;;;;;5.60;1.25;;;;;;;;;;10456619;28;20370;-87
2021/09/01 07:38:25;;;;;;;3.83;1.03;;;;;;;;;;10400576;28;20075;-86
2021/09/01 07:48:50;;;;;;;2.10;0.80;;;;;;;;;;10331538;28;20057;-84
2021/09/01 07:53:50;;;;;;;3.67;0.90;;;;;;;;;;10330865;28;20041;-83
2021/09/01 07:58:51;;;;;;;3.63;1.00;;;;;;;;;;10331768;28;20867;-83
2021/09/01 08:03:52;;;;;;;2.88;0.95;;;;;;;;;;10315094;28;20463;-85
2021/09/01 08:08:52;;;;;;;2.72;1.25;;;;;;;;;;10331597;28;20091;-84
2021/09/01 08:13:53;;;;;;;2.10;1.05;;;;;;;;;;10337963;28;20053;-85
2021/09/01 08:18:55;;;;;;;3.60;0.90;;;;;;;;;;10335573;28;20037;-84
2021/09/01 08:23:55;;;;;;;8.43;1.50;;;;;;;;;;10324150;28;20076;-84
2021/09/01 08:28:55;;;;;;;11.87;1.40;;;;;;;;;;10391092;28;20026;-84
2021/09/01 08:33:56;;;;;;;6.88;1.48;;;;;;;;;;10391569;28;20434;-85
2021/09/01 08:38:56;;;;;;;2.70;0.97;;;;;;;;;;10394305;28;20025;-85
2021/09/01 08:44:00;;;;;;;3.50;1.20;;;;;;;;;;10377804;28;20455;-85
2021/09/01 08:49:02;;;;;;;5.57;1.20;;;;;;;;;;10330742;28;20026;-86
2021/09/01 08:54:03;;;;;;;12.85;1.50;;;;;;;;;;10347932;28;20006;-85
2021/09/01 08:59:04;;;;;;;3.25;1.05;;;;;;;;;;10332001;28;20030;-85
2021/09/01 09:04:05;;;;;;;2.83;1.15;;;;;;;;;;10333954;28;20365;-85
2021/09/01 09:09:10;;;;;;;4.47;1.17;;;;;;;;;;10329510;28;20030;-84
2021/09/01 09:14:20;;;;;;;12.40;1.42;;;;;;;;;;10331855;28;20017;-90
2021/09/01 09:19:23;;;;;;;14.70;1.77;;;;;;;;;;10329702;28;20089;-87
2021/09/01 09:24:23;;;;;;;9.48;1.52;;;;;;;;;;10325674;28;20646;-86
2021/09/01 09:29:24;;;;;;;5.20;1.38;;;;;;;;;;10322035;28;20679;-86
2021/09/01 09:34:41;;;;;;;7.85;1.20;;;;;;;;;;10341215;28;20166;-86
2021/09/01 09:39:46;;;;;;;5.57;1.13;;;;;;;;;;10324563;28;20349;-86
2021/09/01 09:44:47;;;;;;;5.43;1.10;;;;;;;;;;10321866;28;20042;-85
2021/09/01 09:49:48;;;;;;;4.95;1.40;;;;;;;;;;10319731;28;20639;-86
2021/09/01 09:54:49;;;;;;;13.82;1.80;;;;;;;;;;10323435;28;20534;-86
2021/09/01 09:59:49;;;;;;;10.15;1.33;;;;;;;;;;10337334;28;20123;-86
2021/09/01 10:04:50;;;;;;;5.90;1.02;;;;;;;;;;10328998;28;20112;-84
2021/09/01 10:09:50;;;;;;;5.38;1.45;;;;;;;;;;10322514;28;20033;-84
2021/09/01 10:14:51;;;;;;;4.28;1.40;;;;;;;;;;10320426;28;20120;-85
2021/09/01 10:19:53;;;;;;;5.10;1.30;;;;;;;;;;10322376;28;20014;-83
2021/09/01 10:24:53;;;;;;;2.45;0.88;;;;;;;;;;10321708;28;20755;-83
2021/09/01 10:29:55;;;;;;;2.43;1.10;;;;;;;;;;10320561;28;20373;-85
2021/09/01 10:35:11;;;;;;;8.45;1.48;;;;;;;;;;10319942;28;20662;-84
2021/09/01 10:40:13;;;;;;;5.85;1.17;;;;;;;;;;10322352;28;20018;-84
2021/09/01 10:45:19;;;;;;;2.85;1.27;;;;;;;;;;10319066;28;20530;-86
2021/09/01 10:50:23;;;;;;;4.82;1.42;;;;;;;;;;10319471;28;20093;-83
2021/09/01 10:55:24;;;;;;;3.08;0.93;;;;;;;;;;10320551;28;20029;-83
2021/09/01 11:00:38;;;;;;;2.50;1.15;;;;;;;;;;10320369;28;20152;-84
2021/09/01 11:05:39;;;;;;;3.80;1.27;;;;;;;;;;10322461;28;20026;-85
2021/09/01 11:10:55;;;;;;;2.65;1.10;;;;;;;;;;10327243;28;20133;-85
2021/09/01 11:15:55;;;;;;;6.60;1.23;;;;;;;;;;10325579;28;20034;-86
2021/09/01 11:20:56;;;;;;;1.55;1.05;;;;;;;;;;10334906;28;20607;-86
2021/09/01 11:25:57;;;;;;;1.45;1.10;;;;;;;;;;10329742;28;20132;-86
2021/09/01 11:30:59;;;;;;;3.65;1.10;;;;;;;;;;10330864;28;20029;-86
2021/09/01 11:36:00;;;;;;;5.82;1.25;;;;;;;;;;10328693;28;20030;-86
2021/09/01 11:41:00;;;;;;;3.45;0.98;;;;;;;;;;10308844;28;20158;-86
2021/09/01 11:46:01;;;;;;;2.90;0.95;;;;;;;;;;10325055;28;20050;-86
2021/09/01 11:51:01;;;;;;;3.08;1.02;;;;;;;;;;10324001;28;20026;-86
2021/09/01 11:56:02;;;;;;;2.97;1.13;;;;;;;;;;10325120;28;20088;-86
2021/09/01 12:01:04;;;;;;;1.50;0.88;;;;;;;;;;10326007;28;20026;-86
2021/09/01 12:06:08;;;;;;;2.45;1.20;;;;;;;;;;10307570;28;20057;-86
2021/09/01 12:11:09;;;;;;;1.98;1.17;;;;;;;;;;10339078;28;20382;-86
2021/09/01 12:16:11;;;;;;;1.63;1.10;;;;;;;;;;10326844;28;20030;-87
2021/09/01 12:21:12;;;;;;;1.88;0.93;;;;;;;;;;10312497;28;20352;-86
2021/09/01 12:26:17;;;;;;;1.67;0.85;;;;;;;;;;10325672;28;20033;-86
2021/09/01 12:31:24;;;;;;;2.75;1.10;;;;;;;;;;10324759;28;20034;-87
2021/09/01 12:36:27;;;;;;;3.08;0.90;;;;;;;;;;10325376;28;20544;-86
2021/09/01 12:41:28;;;;;;;1.63;0.90;;;;;;;;;;10322603;28;20026;-86
2021/09/01 12:46:28;;;;;;;1.13;1.00;;;;;;;;;;10323958;28;20658;-85
2021/09/01 12:51:30;;;;;;;3.42;1.20;;;;;;;;;;10322139;28;20010;-85
2021/09/01 12:56:30;;;;;;;3.88;0.98;;;;;;;;;;10320822;28;20033;-86
2021/09/01 13:01:31;;;;;;;2.60;1.00;;;;;;;;;;10322758;28;20061;-85
2021/09/01 13:06:31;;;;;;;5.30;1.05;;;;;;;;;;10321578;28;20432;-85
2021/09/01 13:11:32;;;;;;;2.50;1.05;;;;;;;;;;10303396;28;20450;-86
2021/09/01 13:16:32;;;;;;;2.08;1.10;;;;;;;;;;10320364;28;20034;-85
2021/09/01 13:21:33;;;;;;;4.90;1.17;;;;;;;;;;10319660;28;20464;-85
2021/09/01 13:26:34;;;;;;;2.83;1.17;;;;;;;;;;10318173;28;20135;-84
2021/09/01 13:31:35;;;;;;;10.00;1.05;;;;;;;;;;10319328;28;20478;-86
2021/09/01 13:36:35;;;;;;;3.28;1.00;;;;;;;;;;10316916;28;20396;-85
2021/09/01 13:41:37;;;;;;;3.67;1.10;;;;;;;;;;10318944;28;20182;-83
2021/09/01 13:46:38;;;;;;;2.92;1.38;;;;;;;;;;10302302;28;20483;-82
2021/09/01 13:51:39;;;;;;;8.60;1.90;;;;;;;;;;10336168;28;20032;-83
2021/09/01 13:56:40;;;;;;;5.57;1.02;;;;;;;;;;10370581;28;20033;-83
2021/09/01 14:01:41;;;;;;;4.45;1.35;;;;;;;;;;10394496;28;20046;-82
2021/09/01 14:06:41;;;;;;;1.73;1.10;;;;;;;;;;10399576;28;20022;-83
2021/09/01 14:11:43;;;;;;;4.47;1.52;;;;;;;;;;10376801;28;20026;-84
2021/09/01 14:16:43;;;;;;;6.90;1.10;;;;;;;;;;10389023;28;20025;-83
2021/09/01 14:21:44;;;;;;;11.13;1.35;;;;;;;;;;10389691;28;20105;-85
2021/09/01 14:26:44;;;;;;;5.00;1.13;;;;;;;;;;10390718;28;20053;-84
2021/09/01 18:32:41;;;;;;;11.30;1.85;;;;;;;;;;10608386;27;20213;-77
2021/09/01 18:37:41;;;;;;;3.93;1.40;;;;;;;;;;10578019;28;20083;-77
2021/09/01 18:43:00;;;;;;;7.05;1.63;;;;;;;;;;10584308;28;20783;-78
2021/09/01 18:48:02;;;;;;;6.10;1.67;;;;;;;;;;10585793;28;20035;-78
2021/09/01 18:53:03;;;;;;;4.25;1.70;;;;;;;;;;10562160;28;20036;-77
2021/09/01 18:58:03;;;;;;;7.25;1.40;;;;;;;;;;10565508;28;20064;-78
2021/09/01 19:03:08;;;;;;;2.42;1.40;;;;;;;;;;10561900;28;20128;-80
2021/09/01 19:08:12;;;;;;;2.83;1.70;;;;;;;;;;10584647;28;20452;-79
2021/09/01 19:13:16;;;;;;;4.88;1.55;;;;;;;;;;10563948;28;20032;-83
2021/09/01 19:18:16;;;;;;;6.78;1.67;;;;;;;;;;10585752;28;20036;-87
2021/09/01 19:23:17;;;;;;;4.63;1.40;;;;;;;;;;10555955;28;20015;-81
2021/09/01 19:28:21;;;;;;;5.57;1.87;;;;;;;;;;10556137;28;20485;-81
2021/09/01 19:33:21;;;;;;;5.65;1.75;;;;;;;;;;10453837;28;20998;-82
2021/09/01 19:38:23;;;;;;;4.10;1.60;;;;;;;;;;10463424;28;20052;-82
2021/09/01 19:43:24;;;;;;;1.45;1.35;;;;;;;;;;10522547;22;20465;-85
2021/09/01 19:48:28;;;;;;;3.00;1.63;;;;;;;;;;10440758;28;20027;-85
2021/09/01 19:53:31;;;;;;;7.32;1.70;;;;;;;;;;10437006;28;20032;-85
2021/09/01 19:58:36;;;;;;;3.42;1.30;;;;;;;;;;10437617;28;20038;-84
2021/09/01 20:03:38;;;;;;;6.00;1.55;;;;;;;;;;10443013;28;20414;-85
2021/09/01 20:08:40;;;;;;;5.15;1.38;;;;;;;;;;10443135;28;20417;-85
2021/09/01 20:13:41;;;;;;;9.48;1.50;;;;;;;;;;10432887;28;20025;-85
2021/09/01 20:18:42;;;;;;;2.30;1.40;;;;;;;;;;10456333;28;20475;-85
2021/09/01 20:23:42;;;;;;;4.38;1.50;;;;;;;;;;10436471;28;20029;-85
2021/09/01 20:28:43;;;;;;;2.88;1.48;;;;;;;;;;10456391;28;20044;-85
2021/09/01 20:33:44;;;;;;;2.13;1.48;;;;;;;;;;10442936;28;20025;-85
2021/09/01 20:38:45;;;;;;;5.03;1.70;;;;;;;;;;10458315;28;20438;-85
2021/09/01 20:43:48;;;;;;;2.42;1.27;;;;;;;;;;10437874;28;20056;-85
2021/09/01 20:48:54;;;;;;;3.88;1.48;;;;;;;;;;10426515;28;20100;-85
2021/09/01 20:53:55;;;;;;;3.22;1.58;;;;;;;;;;10457043;28;20046;-85
2021/09/01 20:58:57;;;;;;;2.58;1.55;;;;;;;;;;10440081;28;20398;-85
2021/09/01 21:03:57;;;;;;;3.05;1.60;;;;;;;;;;10439601;28;20045;-84
2021/09/01 21:08:59;;;;;;;2.75;1.60;;;;;;;;;;10458527;28;20048;-85
2021/09/01 21:14:00;;;;;;;4.13;1.70;;;;;;;;;;10438979;28;20060;-85
2021/09/01 21:19:02;;;;;;;2.97;1.60;;;;;;;;;;10455585;28;20083;-83
2021/09/01 21:24:05;;;;;;;1.77;1.58;;;;;;;;;;10457817;28;20029;-83
2021/09/01 21:29:06;;;;;;;3.33;1.73;;;;;;;;;;10457355;28;20037;-84
2021/09/01 21:34:07;;;;;;;4.45;1.77;;;;;;;;;;10450022;28;20033;-82
2021/09/01 21:39:10;;;;;;;2.38;1.50;;;;;;;;;;10436549;28;20035;-82
2021/09/01 21:44:13;;;;;;;5.88;2.25;;;;;;;;;;10436765;28;20045;-81
2021/09/01 21:49:13;;;;;;;3.97;2.17;;;;;;;;;;10449147;28;20459;-81
2021/09/01 21:54:14;;;;;;;4.63;2.13;;;;;;;;;;10456168;28;20025;-81
2021/09/01 21:59:14;;;;;;;4.77;2.00;;;;;;;;;;10456800;28;20065;-81
2021/09/01 22:04:17;;;;;;;7.10;2.60;;;;;;;;;;10456286;28;20470;-81
2021/09/01 22:09:18;;;;;;;7.00;2.05;;;;;;;;;;10438672;28;20037;-81
2021/09/01 22:14:18;;;;;;;5.38;2.35;;;;;;;;;;10455866;28;20035;-80
2021/09/01 22:19:19;;;;;;;4.03;2.17;;;;;;;;;;10455237;28;20167;-81
2021/09/01 22:24:19;;;;;;;3.70;2.20;;;;;;;;;;10438601;28;20553;-82
2021/09/01 22:29:20;;;;;;;6.83;2.00;;;;;;;;;;10456216;28;20032;-80
2021/09/01 22:34:20;;;;;;;3.20;2.03;;;;;;;;;;10441888;28;20451;-82
2021/09/01 22:39:20;;;;;;;3.33;1.97;;;;;;;;;;10455024;28;20025;-83
2021/09/01 22:44:21;;;;;;;5.50;1.93;;;;;;;;;;10446633;28;20471;-83
2021/09/01 22:49:21;;;;;;;3.43;2.57;;;;;;;;;;10448258;28;20375;-88
2021/09/01 22:54:22;;;;;;;4.80;2.40;;;;;;;;;;10432725;28;20120;-81
2021/09/01 22:59:22;;;;;;;8.53;2.20;;;;;;;;;;10443804;28;20507;-80
2021/09/01 23:04:23;;;;;;;4.63;2.10;;;;;;;;;;10437520;28;20040;-88
2021/09/01 23:09:23;;;;;;;6.40;2.28;;;;;;;;;;10411765;28;20025;-87
2021/09/01 23:14:24;;;;;;;2.78;1.85;;;;;;;;;;10385180;28;20045;-87
2021/09/01 23:19:24;;;;;;;4.63;2.00;;;;;;;;;;10387294;28;20342;-88
2021/09/01 23:24:25;;;;;;;6.40;2.40;;;;;;;;;;10434431;28;20078;-88
2021/09/01 23:29:25;;;;;;;7.67;2.50;;;;;;;;;;10416413;28;20033;-89
2021/09/01 23:34:26;;;;;;;5.60;2.55;;;;;;;;;;10414495;28;20470;-89
2021/09/01 23:39:26;;;;;;;3.75;2.20;;;;;;;;;;10416424;28;20033;-89
2021/09/01 23:44:27;;;;;;;4.70;2.17;;;;;;;;;;10427921;28;20091;-89
2021/09/01 23:49:28;;;;;;;4.43;2.30;;;;;;;;;;10426924;28;20032;-88
2021/09/01 23:54:28;;;;;;;4.83;2.10;;;;;;;;;;10427431;28;20048;-91
2021/09/01 23:59:28;;;;;;;9.95;2.10;;;;;;;;;;10413598;28;20462;-88
